Time;durP1;ratioP1;P1;durP2;ratioP2;P2;SDS_P1;SDS_P2;PMS_P1;PMS_P2;Temp;Humidity;BMP_temperature;BMP_pressure;BME280_temperature;BME280_humidity;BME280_pressure;Samples;Min_cycle;Max_cycle;Signal;HPM_P1;HPM_P2
2023/04/13 00:01:59;;;;;;;2.58;2.38;;;;;;;;;;5116809;28;20587;-84
2023/04/13 00:04:29;;;;;;;5.65;4.22;;;;;;;;;;5115192;28;20247;-84
2023/04/13 00:07:01;;;;;;;2.80;2.60;;;;;;;;;;5116281;28;20267;-84
2023/04/13 00:09:29;;;;;;;2.30;2.10;;;;;;;;;;5116467;28;20560;-83
2023/04/13 00:11:57;;;;;;;3.17;2.88;;;;;;;;;;5116327;28;20202;-84
2023/04/13 00:14:26;;;;;;;3.03;2.80;;;;;;;;;;5116433;28;20219;-85
2023/04/13 00:16:55;;;;;;;2.30;2.10;;;;;;;;;;5116773;28;20237;-83
2023/04/13 00:19:23;;;;;;;2.88;2.65;;;;;;;;;;5116626;28;20567;-84
2023/04/13 00:21:51;;;;;;;2.25;2.05;;;;;;;;;;5116720;28;20558;-84
2023/04/13 00:24:20;;;;;;;5.72;2.85;;;;;;;;;;5116215;28;20224;-84
2023/04/13 00:26:47;;;;;;;2.80;2.53;;;;;;;;;;5116361;28;20291;-84
2023/04/13 00:29:15;;;;;;;3.95;2.55;;;;;;;;;;5115630;28;20237;-84
2023/04/13 00:31:42;;;;;;;1.77;1.60;;;;;;;;;;5116494;27;20608;-84
2023/04/13 00:34:10;;;;;;;4.70;2.25;;;;;;;;;;5115678;28;20702;-84
2023/04/13 00:36:37;;;;;;;2.13;1.92;;;;;;;;;;5115733;28;20202;-84
2023/04/13 00:39:05;;;;;;;2.13;1.95;;;;;;;;;;5115875;28;20242;-83
2023/04/13 00:41:34;;;;;;;2.17;1.85;;;;;;;;;;5115958;28;20242;-84
2023/04/13 00:44:01;;;;;;;1.95;1.55;;;;;;;;;;5115813;28;20223;-83
2023/04/13 00:46:30;;;;;;;1.75;1.60;;;;;;;;;;5116423;28;20245;-84
2023/04/13 00:49:00;;;;;;;2.03;1.73;;;;;;;;;;5116215;28;20725;-85
2023/04/13 00:51:29;;;;;;;1.65;1.55;;;;;;;;;;5115768;28;20186;-84
2023/04/13 00:53:57;;;;;;;1.83;1.40;;;;;;;;;;5116214;28;20219;-84
2023/04/13 00:56:26;;;;;;;1.17;1.08;;;;;;;;;;5116117;28;20200;-84
2023/04/13 00:58:56;;;;;;;1.63;1.52;;;;;;;;;;5116187;28;20714;-83
2023/04/13 01:01:24;;;;;;;2.05;1.05;;;;;;;;;;5115925;28;20668;-84
2023/04/13 01:03:52;;;;;;;1.33;1.23;;;;;;;;;;5115552;28;20278;-83
2023/04/13 01:06:25;;;;;;;1.40;1.30;;;;;;;;;;5115322;28;20584;-84
2023/04/13 01:08:56;;;;;;;0.98;0.98;;;;;;;;;;5115541;28;20261;-84
2023/04/13 01:11:30;;;;;;;1.10;1.00;;;;;;;;;;5115945;28;20180;-85
2023/04/13 01:14:09;;;;;;;1.00;1.00;;;;;;;;;;5116402;28;20591;-84
2023/04/13 01:16:42;;;;;;;1.08;1.08;;;;;;;;;;5116463;28;20188;-84
2023/04/13 01:19:15;;;;;;;0.93;0.90;;;;;;;;;;5115354;28;20203;-84
2023/04/13 01:21:43;;;;;;;0.80;0.80;;;;;;;;;;5115823;28;20188;-84
2023/04/13 01:24:20;;;;;;;3.13;0.70;;;;;;;;;;5115129;28;20299;-84
2023/04/13 01:26:57;;;;;;;3.10;1.05;;;;;;;;;;5115894;28;20179;-83
2023/04/13 01:29:26;;;;;;;0.90;0.90;;;;;;;;;;5115809;28;20276;-85
2023/04/13 01:31:54;;;;;;;0.98;0.98;;;;;;;;;;5115799;28;20564;-85
2023/04/13 01:34:23;;;;;;;0.90;0.90;;;;;;;;;;5114925;28;20246;-84
2023/04/13 01:36:51;;;;;;;0.90;0.90;;;;;;;;;;5115156;28;20245;-84
2023/04/13 01:39:30;;;;;;;1.33;1.23;;;;;;;;;;5114851;28;20235;-85
2023/04/13 01:41:58;;;;;;;1.23;1.00;;;;;;;;;;5115473;28;20648;-83
2023/04/13 01:44:27;;;;;;;0.90;0.90;;;;;;;;;;5116221;28;20709;-84
2023/04/13 01:46:59;;;;;;;1.20;1.10;;;;;;;;;;5115683;28;20206;-84
2023/04/13 01:49:27;;;;;;;0.75;0.75;;;;;;;;;;5115714;28;20199;-84
2023/04/13 01:51:57;;;;;;;3.55;1.58;;;;;;;;;;5115312;28;20200;-84
2023/04/13 01:54:26;;;;;;;1.10;1.05;;;;;;;;;;5115352;28;20699;-85
2023/04/13 01:56:56;;;;;;;0.88;0.88;;;;;;;;;;5115077;28;20373;-84
2023/04/13 01:59:23;;;;;;;1.65;0.80;;;;;;;;;;5116249;28;20204;-84
2023/04/13 02:01:53;;;;;;;1.10;1.00;;;;;;;;;;5115781;28;20179;-83
2023/04/13 02:04:21;;;;;;;1.05;1.02;;;;;;;;;;5114937;28;20224;-83
2023/04/13 02:06:50;;;;;;;1.23;0.95;;;;;;;;;;5114810;28;20208;-84
2023/04/13 02:09:18;;;;;;;2.78;1.08;;;;;;;;;;5114730;28;20235;-83
2023/04/13 02:11:46;;;;;;;1.00;1.00;;;;;;;;;;5115239;28;20203;-84
2023/04/13 02:14:14;;;;;;;0.90;0.90;;;;;;;;;;5114763;28;20215;-83
2023/04/13 02:16:42;;;;;;;0.90;0.90;;;;;;;;;;5115196;28;20211;-84
2023/04/13 02:19:10;;;;;;;1.65;0.90;;;;;;;;;;5114277;28;20290;-84
2023/04/13 02:21:38;;;;;;;1.02;1.02;;;;;;;;;;5114805;28;20286;-85
2023/04/13 02:26:36;;;;;;;0.77;0.77;;;;;;;;;;5051356;28;20225;-83
2023/04/13 02:29:04;;;;;;;1.05;0.93;;;;;;;;;;5039865;28;20202;-83
2023/04/13 02:31:32;;;;;;;1.17;0.90;;;;;;;;;;5039957;28;20218;-82
2023/04/13 02:34:00;;;;;;;0.75;0.75;;;;;;;;;;5039728;28;20203;-82
2023/04/13 02:36:29;;;;;;;1.52;0.90;;;;;;;;;;5038055;28;20209;-82
2023/04/13 02:38:56;;;;;;;0.80;0.80;;;;;;;;;;5075362;22;20651;-84
2023/04/13 02:41:24;;;;;;;1.75;0.80;;;;;;;;;;5104396;28;20231;-85
2023/04/13 02:43:51;;;;;;;0.90;0.90;;;;;;;;;;5104275;28;20643;-84
2023/04/13 02:46:19;;;;;;;0.70;0.70;;;;;;;;;;5104903;28;20283;-84
2023/04/13 02:48:46;;;;;;;1.55;0.88;;;;;;;;;;5102920;28;20220;-84
2023/04/13 02:51:14;;;;;;;0.88;0.70;;;;;;;;;;5104489;28;20242;-84
2023/04/13 02:53:43;;;;;;;0.85;0.85;;;;;;;;;;5105045;28;20243;-84
2023/04/13 02:56:11;;;;;;;1.45;0.93;;;;;;;;;;5104266;28;20236;-85
2023/04/13 02:58:40;;;;;;;1.10;0.75;;;;;;;;;;5104770;28;20243;-85
2023/04/13 03:01:08;;;;;;;1.00;1.00;;;;;;;;;;5103866;28;20244;-85
2023/04/13 03:03:36;;;;;;;0.73;0.73;;;;;;;;;;5103474;28;20291;-83
2023/04/13 03:06:04;;;;;;;1.17;0.90;;;;;;;;;;5101844;28;20291;-83
2023/04/13 03:08:31;;;;;;;0.85;0.85;;;;;;;;;;5102860;28;20291;-85
2023/04/13 03:11:01;;;;;;;1.35;0.77;;;;;;;;;;5104587;28;20204;-85
2023/04/13 03:13:28;;;;;;;1.25;1.15;;;;;;;;;;5103806;28;20239;-84
2023/04/13 03:15:56;;;;;;;0.52;0.52;;;;;;;;;;5104225;28;20629;-84
2023/04/13 03:18:24;;;;;;;1.70;1.27;;;;;;;;;;5103856;28;20223;-84
2023/04/13 03:20:52;;;;;;;1.00;0.95;;;;;;;;;;5101885;28;20614;-83
2023/04/13 03:23:19;;;;;;;2.78;0.80;;;;;;;;;;5105209;28;20196;-83
2023/04/13 03:25:47;;;;;;;0.82;0.75;;;;;;;;;;5104785;28;20670;-85
2023/04/13 03:28:17;;;;;;;0.95;0.95;;;;;;;;;;5106087;28;20224;-85
2023/04/13 03:30:45;;;;;;;0.80;0.80;;;;;;;;;;5103930;28;20231;-84
2023/04/13 03:33:12;;;;;;;1.20;1.10;;;;;;;;;;5103650;28;20224;-83
2023/04/13 03:35:40;;;;;;;1.10;0.98;;;;;;;;;;5103573;28;20288;-84
2023/04/13 03:38:07;;;;;;;1.90;1.00;;;;;;;;;;5103189;28;20224;-84
2023/04/13 03:40:35;;;;;;;1.92;0.80;;;;;;;;;;5103579;28;20315;-84
2023/04/13 03:43:02;;;;;;;2.50;0.80;;;;;;;;;;5104290;28;20234;-83
2023/04/13 03:45:31;;;;;;;1.05;0.90;;;;;;;;;;5104408;28;20219;-84
2023/04/13 03:47:59;;;;;;;0.93;0.90;;;;;;;;;;5101220;28;20204;-84
2023/04/13 03:50:27;;;;;;;0.90;0.90;;;;;;;;;;5103003;28;20244;-84
2023/04/13 03:52:54;;;;;;;6.32;1.80;;;;;;;;;;5101873;28;20250;-83
2023/04/13 03:55:22;;;;;;;0.80;0.80;;;;;;;;;;5103684;28;20234;-84
2023/04/13 03:57:50;;;;;;;2.83;0.95;;;;;;;;;;5103526;28;20283;-83
2023/04/13 04:00:18;;;;;;;1.50;0.80;;;;;;;;;;5103458;28;20251;-83
2023/04/13 04:02:47;;;;;;;1.23;1.05;;;;;;;;;;5103275;28;20287;-84
2023/04/13 04:05:15;;;;;;;1.58;0.73;;;;;;;;;;5102160;28;20240;-84
2023/04/13 04:07:42;;;;;;;1.83;0.80;;;;;;;;;;5102115;28;20739;-85
2023/04/13 04:10:10;;;;;;;1.27;1.10;;;;;;;;;;5102511;28;20671;-83
2023/04/13 04:12:38;;;;;;;1.73;0.77;;;;;;;;;;5102881;28;20287;-84
2023/04/13 04:15:07;;;;;;;0.80;0.80;;;;;;;;;;5103198;28;20207;-83
2023/04/13 04:17:34;;;;;;;1.80;1.10;;;;;;;;;;5102719;28;20239;-85
2023/04/13 04:20:05;;;;;;;1.25;0.80;;;;;;;;;;5105828;28;20234;-84
2023/04/13 04:22:33;;;;;;;1.55;1.20;;;;;;;;;;5107553;28;20228;-84
2023/04/13 04:25:01;;;;;;;1.35;1.10;;;;;;;;;;5107009;28;20736;-84
2023/04/13 04:27:30;;;;;;;0.90;0.88;;;;;;;;;;5106671;28;20195;-85
2023/04/13 04:29:59;;;;;;;0.98;0.90;;;;;;;;;;5105809;28;20567;-85
2023/04/13 04:32:27;;;;;;;0.95;0.80;;;;;;;;;;5105487;28;20574;-83
2023/04/13 04:34:55;;;;;;;1.05;0.90;;;;;;;;;;5104387;28;20223;-84
2023/04/13 04:37:24;;;;;;;1.90;0.98;;;;;;;;;;5106513;28;20207;-85
2023/04/13 04:39:53;;;;;;;0.85;0.77;;;;;;;;;;5105337;28;20228;-84
2023/04/13 04:42:20;;;;;;;1.55;0.70;;;;;;;;;;5105851;28;20211;-84
2023/04/13 04:44:48;;;;;;;1.92;1.00;;;;;;;;;;5105545;28;20269;-86
2023/04/13 04:47:17;;;;;;;1.10;1.00;;;;;;;;;;5105580;28;20226;-85
2023/04/13 04:49:45;;;;;;;1.25;0.88;;;;;;;;;;5103432;28;20247;-85
2023/04/13 04:52:13;;;;;;;0.95;0.70;;;;;;;;;;5104882;28;20227;-86
2023/04/13 04:54:42;;;;;;;0.80;0.80;;;;;;;;;;5105022;28;20214;-84
2023/04/13 04:57:11;;;;;;;0.90;0.90;;;;;;;;;;5103868;28;20204;-85
2023/04/13 04:59:39;;;;;;;0.80;0.80;;;;;;;;;;5103460;28;20220;-84
2023/04/13 05:02:07;;;;;;;1.20;1.00;;;;;;;;;;5103824;28;20232;-85
2023/04/13 05:04:34;;;;;;;0.95;0.95;;;;;;;;;;5103895;28;20627;-85
2023/04/13 05:07:02;;;;;;;0.70;0.70;;;;;;;;;;5103213;28;20260;-85
2023/04/13 05:09:30;;;;;;;1.10;0.90;;;;;;;;;;5103124;28;20220;-86
2023/04/13 05:11:59;;;;;;;1.50;1.02;;;;;;;;;;5102972;28;20196;-85
2023/04/13 05:14:27;;;;;;;1.20;0.57;;;;;;;;;;5103242;28;20208;-85
2023/04/13 05:16:54;;;;;;;1.00;0.90;;;;;;;;;;5113474;28;20185;-84
2023/04/13 05:19:22;;;;;;;0.95;0.93;;;;;;;;;;5116119;28;20224;-80
2023/04/13 05:21:49;;;;;;;0.90;0.90;;;;;;;;;;5113237;28;20192;-80
2023/04/13 05:24:17;;;;;;;0.80;0.80;;;;;;;;;;5114786;28;20200;-80
2023/04/13 05:26:44;;;;;;;0.60;0.60;;;;;;;;;;5114441;28;20220;-80
2023/04/13 05:29:13;;;;;;;1.08;0.98;;;;;;;;;;5113418;28;20231;-80
2023/04/13 05:31:41;;;;;;;1.25;0.90;;;;;;;;;;5097771;28;20235;-82
2023/04/13 05:34:10;;;;;;;1.05;0.95;;;;;;;;;;5096733;28;20266;-82
2023/04/13 05:36:38;;;;;;;1.85;1.30;;;;;;;;;;5100298;28;20230;-83
2023/04/13 05:39:05;;;;;;;1.60;0.75;;;;;;;;;;5100508;28;20266;-82
2023/04/13 05:41:33;;;;;;;1.95;0.88;;;;;;;;;;5100377;28;20582;-82
2023/04/13 05:44:01;;;;;;;1.75;1.00;;;;;;;;;;5100715;28;20232;-82
2023/04/13 05:46:30;;;;;;;1.58;0.80;;;;;;;;;;5099553;28;20216;-83
2023/04/13 05:48:58;;;;;;;2.58;1.17;;;;;;;;;;5099185;28;20715;-83
2023/04/13 05:51:29;;;;;;;0.80;0.80;;;;;;;;;;5099213;28;20196;-83
2023/04/13 05:53:56;;;;;;;2.33;0.90;;;;;;;;;;5098963;28;20247;-82
2023/04/13 05:56:24;;;;;;;0.80;0.80;;;;;;;;;;5099705;28;20212;-82
2023/04/13 05:58:52;;;;;;;3.08;1.10;;;;;;;;;;5099424;28;20596;-83
2023/04/13 06:01:19;;;;;;;1.25;1.00;;;;;;;;;;5098805;28;20235;-82
2023/04/13 06:03:48;;;;;;;0.90;0.80;;;;;;;;;;5102680;28;20199;-83
2023/04/13 06:06:17;;;;;;;2.85;1.20;;;;;;;;;;5104135;28;20248;-84
2023/04/13 06:08:45;;;;;;;2.80;1.35;;;;;;;;;;5102227;28;20299;-83
2023/04/13 06:11:12;;;;;;;0.93;0.93;;;;;;;;;;5102767;28;20200;-83
2023/04/13 06:13:41;;;;;;;1.33;0.93;;;;;;;;;;5102377;28;20239;-82
2023/04/13 06:16:09;;;;;;;2.38;0.80;;;;;;;;;;5102092;28;20291;-83
2023/04/13 06:18:37;;;;;;;1.33;1.10;;;;;;;;;;5100944;28;20223;-83
2023/04/13 06:21:07;;;;;;;1.45;0.90;;;;;;;;;;5100796;28;20287;-83
2023/04/13 06:23:36;;;;;;;1.70;1.10;;;;;;;;;;5100272;28;20243;-83
2023/04/13 06:26:03;;;;;;;2.25;1.55;;;;;;;;;;5100536;28;20230;-83
2023/04/13 06:28:31;;;;;;;4.13;1.00;;;;;;;;;;5099866;28;20235;-84
2023/04/13 06:30:58;;;;;;;1.30;0.90;;;;;;;;;;5101105;28;20200;-82
2023/04/13 06:33:26;;;;;;;2.15;0.93;;;;;;;;;;5101924;28;20227;-82
2023/04/13 06:35:54;;;;;;;1.20;1.10;;;;;;;;;;5103281;28;20200;-80
2023/04/13 06:38:23;;;;;;;4.22;3.13;;;;;;;;;;5099907;28;20204;-81
2023/04/13 06:40:50;;;;;;;0.90;0.90;;;;;;;;;;5100537;28;20200;-82
2023/04/13 06:43:18;;;;;;;0.70;0.70;;;;;;;;;;5100774;28;20227;-83
2023/04/13 06:45:46;;;;;;;1.42;1.33;;;;;;;;;;5099681;28;20231;-83
2023/04/13 06:48:14;;;;;;;1.42;0.98;;;;;;;;;;5099325;28;20264;-83
2023/04/13 06:50:43;;;;;;;0.80;0.80;;;;;;;;;;5099635;28;20734;-84
2023/04/13 06:53:10;;;;;;;3.55;1.48;;;;;;;;;;5099763;28;20211;-83
2023/04/13 06:55:39;;;;;;;1.70;1.13;;;;;;;;;;5100287;28;20204;-83
2023/04/13 06:58:07;;;;;;;4.63;1.40;;;;;;;;;;5101232;28;20211;-83
2023/04/13 07:00:34;;;;;;;2.72;1.20;;;;;;;;;;5097616;28;20302;-83
2023/04/13 07:03:02;;;;;;;0.85;0.80;;;;;;;;;;5099353;28;20208;-81
2023/04/13 07:05:30;;;;;;;2.63;1.38;;;;;;;;;;5100017;28;20197;-83
2023/04/13 07:07:57;;;;;;;2.95;1.10;;;;;;;;;;5100083;28;20247;-81
2023/04/13 07:10:26;;;;;;;1.17;1.00;;;;;;;;;;5097248;28;20289;-81
2023/04/13 07:12:54;;;;;;;1.98;1.48;;;;;;;;;;5096793;28;20259;-82
2023/04/13 07:15:22;;;;;;;4.03;1.40;;;;;;;;;;5097774;28;20292;-82
2023/04/13 07:17:51;;;;;;;2.40;1.20;;;;;;;;;;5097586;28;20287;-82
2023/04/13 07:20:18;;;;;;;1.67;1.10;;;;;;;;;;5097183;28;20219;-82
2023/04/13 07:22:46;;;;;;;3.70;1.48;;;;;;;;;;5096796;28;20296;-83
2023/04/13 07:25:13;;;;;;;1.35;1.05;;;;;;;;;;5082708;28;20619;-81
2023/04/13 07:27:41;;;;;;;1.58;1.05;;;;;;;;;;5075970;28;20288;-82
2023/04/13 07:30:11;;;;;;;0.77;0.77;;;;;;;;;;5076065;28;20248;-82
2023/04/13 07:32:39;;;;;;;2.28;1.10;;;;;;;;;;5076870;28;20205;-85
2023/04/13 07:35:07;;;;;;;2.28;1.00;;;;;;;;;;5077605;28;20212;-82
2023/04/13 07:37:35;;;;;;;1.35;1.05;;;;;;;;;;5076354;28;20204;-80
2023/04/13 07:40:03;;;;;;;1.15;0.90;;;;;;;;;;5077978;28;20311;-84
2023/04/13 07:42:30;;;;;;;1.20;1.08;;;;;;;;;;5079587;28;20201;-83
2023/04/13 07:44:58;;;;;;;1.67;1.00;;;;;;;;;;5079656;28;20201;-83
2023/04/13 07:47:27;;;;;;;4.05;1.55;;;;;;;;;;5079326;28;20245;-81
2023/04/13 07:49:55;;;;;;;2.85;1.17;;;;;;;;;;5077269;28;20715;-82
2023/04/13 07:52:22;;;;;;;1.77;1.10;;;;;;;;;;5079217;28;20207;-83
2023/04/13 07:54:50;;;;;;;2.15;0.98;;;;;;;;;;5089314;28;20208;-83
2023/04/13 07:57:20;;;;;;;1.00;0.90;;;;;;;;;;5098011;28;20552;-81
2023/04/13 07:59:48;;;;;;;1.30;0.82;;;;;;;;;;5098265;28;20256;-83
2023/04/13 08:02:17;;;;;;;1.20;1.10;;;;;;;;;;5098852;28;20204;-84
2023/04/13 08:04:45;;;;;;;2.95;1.38;;;;;;;;;;5099164;28;20725;-84
2023/04/13 08:07:13;;;;;;;0.80;0.80;;;;;;;;;;5097957;28;20288;-84
2023/04/13 08:09:42;;;;;;;1.08;1.00;;;;;;;;;;5096043;28;20224;-83
2023/04/13 08:12:09;;;;;;;1.33;0.88;;;;;;;;;;5097669;28;20242;-84
2023/04/13 08:14:37;;;;;;;1.90;1.40;;;;;;;;;;5097384;28;20240;-84
2023/04/13 08:17:04;;;;;;;1.60;1.23;;;;;;;;;;5096862;28;20200;-84
2023/04/13 08:19:32;;;;;;;0.82;0.82;;;;;;;;;;5095743;28;20224;-83
2023/04/13 08:22:01;;;;;;;0.80;0.80;;;;;;;;;;5096617;28;20246;-83
2023/04/13 08:24:29;;;;;;;2.65;1.58;;;;;;;;;;5089461;28;20206;-80
2023/04/13 08:26:58;;;;;;;1.38;1.20;;;;;;;;;;5084941;28;20193;-81
2023/04/13 08:29:26;;;;;;;2.28;1.13;;;;;;;;;;5094390;28;20230;-82
2023/04/13 08:31:55;;;;;;;1.48;0.88;;;;;;;;;;5094417;28;20277;-83
2023/04/13 08:34:23;;;;;;;1.10;1.00;;;;;;;;;;5113218;28;20200;-79
2023/04/13 08:36:50;;;;;;;1.35;0.88;;;;;;;;;;5113087;28;20205;-80
2023/04/13 08:39:20;;;;;;;1.25;0.95;;;;;;;;;;5124640;22;20226;-82
2023/04/13 08:41:49;;;;;;;0.93;0.90;;;;;;;;;;5079941;28;20211;-82
2023/04/13 08:44:16;;;;;;;1.88;0.90;;;;;;;;;;5078920;28;20265;-81
2023/04/13 08:46:45;;;;;;;2.08;0.98;;;;;;;;;;5080537;28;20211;-82
2023/04/13 08:49:14;;;;;;;1.73;0.98;;;;;;;;;;5079363;28;20220;-82
2023/04/13 08:51:44;;;;;;;2.30;1.27;;;;;;;;;;5079070;28;20272;-81
2023/04/13 08:54:14;;;;;;;1.40;1.10;;;;;;;;;;5058963;28;20662;-81
2023/04/13 08:56:46;;;;;;;0.98;0.77;;;;;;;;;;5054477;28;20567;-81
2023/04/13 08:59:15;;;;;;;1.25;0.70;;;;;;;;;;5053392;28;20218;-82
2023/04/13 09:01:43;;;;;;;1.38;1.00;;;;;;;;;;5054683;28;20194;-82
2023/04/13 09:04:12;;;;;;;1.10;0.70;;;;;;;;;;5054575;28;20197;-82
2023/04/13 09:06:42;;;;;;;1.20;0.98;;;;;;;;;;5054313;28;20293;-81
2023/04/13 09:09:12;;;;;;;2.00;0.95;;;;;;;;;;5053604;28;20232;-81
2023/04/13 09:11:40;;;;;;;0.82;0.82;;;;;;;;;;5055191;28;20198;-81
2023/04/13 09:14:09;;;;;;;4.47;1.65;;;;;;;;;;5054341;28;20202;-80
2023/04/13 09:16:40;;;;;;;1.10;1.00;;;;;;;;;;5053842;28;20621;-81
2023/04/13 09:19:08;;;;;;;1.45;0.90;;;;;;;;;;5054179;28;20252;-80
2023/04/13 09:21:38;;;;;;;3.05;0.82;;;;;;;;;;5054604;28;20288;-81
2023/04/13 09:24:06;;;;;;;0.73;0.73;;;;;;;;;;5054633;28;20292;-82
2023/04/13 09:26:41;;;;;;;1.45;0.98;;;;;;;;;;5054227;28;20640;-81
2023/04/13 09:29:15;;;;;;;0.85;0.70;;;;;;;;;;5053372;28;20705;-81
2023/04/13 09:31:43;;;;;;;3.25;1.02;;;;;;;;;;5054655;28;20205;-80
2023/04/13 09:34:10;;;;;;;1.13;0.80;;;;;;;;;;5054098;28;20201;-81
2023/04/13 09:36:39;;;;;;;1.60;0.80;;;;;;;;;;5053004;28;20205;-82
2023/04/13 09:39:07;;;;;;;0.52;0.52;;;;;;;;;;5053525;28;20198;-81
2023/04/13 09:41:36;;;;;;;0.70;0.70;;;;;;;;;;5055513;28;20289;-81
2023/04/13 09:44:19;;;;;;;0.80;0.80;;;;;;;;;;5064286;28;20268;-82
2023/04/13 09:46:57;;;;;;;4.68;2.05;;;;;;;;;;5062151;28;20779;-82
2023/04/13 09:49:25;;;;;;;0.82;0.82;;;;;;;;;;5059675;28;20591;-82
2023/04/13 09:51:54;;;;;;;1.65;1.10;;;;;;;;;;5060562;28;20202;-81
2023/04/13 09:54:22;;;;;;;1.35;0.82;;;;;;;;;;5059713;28;20634;-81
2023/04/13 09:56:54;;;;;;;0.68;0.68;;;;;;;;;;5058933;28;20259;-81
2023/04/13 09:59:24;;;;;;;0.70;0.70;;;;;;;;;;5063453;28;20225;-82
2023/04/13 10:01:53;;;;;;;0.90;0.90;;;;;;;;;;5061263;28;20685;-81
2023/04/13 10:04:21;;;;;;;1.45;1.00;;;;;;;;;;5060832;28;20232;-81
2023/04/13 10:06:48;;;;;;;1.10;0.68;;;;;;;;;;5063298;28;20288;-82
2023/04/13 10:09:17;;;;;;;1.83;1.02;;;;;;;;;;5062917;28;20226;-81
2023/04/13 10:11:49;;;;;;;1.08;0.70;;;;;;;;;;5063343;28;20202;-81
2023/04/13 10:14:20;;;;;;;0.60;0.60;;;;;;;;;;5064392;28;20205;-82
2023/04/13 10:17:13;;;;;;;0.85;0.73;;;;;;;;;;5063995;28;20744;-82
2023/04/13 10:19:43;;;;;;;1.77;0.80;;;;;;;;;;5061384;28;20214;-82
2023/04/13 10:22:11;;;;;;;2.08;0.75;;;;;;;;;;5062128;28;20198;-81
2023/04/13 10:24:39;;;;;;;0.90;0.80;;;;;;;;;;5061954;28;20228;-82
2023/04/13 10:27:18;;;;;;;1.75;0.73;;;;;;;;;;5062347;28;20595;-81
2023/04/13 10:29:46;;;;;;;0.68;0.68;;;;;;;;;;5061181;28;20225;-81
2023/04/13 10:32:23;;;;;;;0.60;0.60;;;;;;;;;;5061822;28;20205;-81
2023/04/13 10:34:51;;;;;;;0.70;0.65;;;;;;;;;;5062056;28;20650;-81
2023/04/13 10:37:21;;;;;;;1.27;0.80;;;;;;;;;;5061640;28;20198;-81
2023/04/13 10:39:50;;;;;;;0.68;0.60;;;;;;;;;;5060883;28;20287;-81
2023/04/13 10:42:17;;;;;;;1.13;1.02;;;;;;;;;;5062463;28;20223;-81
2023/04/13 10:44:46;;;;;;;0.90;0.63;;;;;;;;;;5061247;28;20293;-81
2023/04/13 10:47:15;;;;;;;0.40;0.40;;;;;;;;;;5065917;28;20229;-81
2023/04/13 10:49:45;;;;;;;0.40;0.40;;;;;;;;;;5069138;28;20297;-83
2023/04/13 10:52:13;;;;;;;0.43;0.43;;;;;;;;;;5067939;28;20281;-83
2023/04/13 10:54:43;;;;;;;0.50;0.30;;;;;;;;;;5067949;28;20205;-82
2023/04/13 10:57:11;;;;;;;0.28;0.28;;;;;;;;;;5071017;28;20317;-81
2023/04/13 10:59:44;;;;;;;0.28;0.28;;;;;;;;;;5069557;28;20675;-82
2023/04/13 11:02:13;;;;;;;0.20;0.20;;;;;;;;;;5064149;28;20808;-82
2023/04/13 11:04:44;;;;;;;0.43;0.43;;;;;;;;;;5068055;28;20261;-82
2023/04/13 11:07:15;;;;;;;0.30;0.30;;;;;;;;;;5066740;28;20259;-80
2023/04/13 11:09:44;;;;;;;0.40;0.40;;;;;;;;;;5066680;28;20248;-81
2023/04/13 11:12:13;;;;;;;0.43;0.43;;;;;;;;;;5066615;28;20218;-81
2023/04/13 11:14:40;;;;;;;0.40;0.40;;;;;;;;;;5066621;28;20289;-80
2023/04/13 11:17:13;;;;;;;0.30;0.30;;;;;;;;;;5066346;28;20205;-81
2023/04/13 11:19:48;;;;;;;0.20;0.20;;;;;;;;;;5066368;28;20285;-81
2023/04/13 11:22:17;;;;;;;0.38;0.38;;;;;;;;;;5065719;28;20206;-82
2023/04/13 11:24:46;;;;;;;0.30;0.30;;;;;;;;;;5067059;28;20283;-81
2023/04/13 11:27:20;;;;;;;0.35;0.35;;;;;;;;;;5065541;28;20201;-82
2023/04/13 11:29:56;;;;;;;0.40;0.40;;;;;;;;;;5065126;28;20283;-81
2023/04/13 11:32:25;;;;;;;0.50;0.50;;;;;;;;;;5065435;28;20228;-82
2023/04/13 11:34:53;;;;;;;0.73;0.73;;;;;;;;;;5063681;28;20668;-82
2023/04/13 11:37:21;;;;;;;2.95;2.75;;;;;;;;;;5062962;28;20212;-81
2023/04/13 11:39:49;;;;;;;1.42;1.30;;;;;;;;;;5064384;28;20236;-81
2023/04/13 11:42:17;;;;;;;0.73;0.73;;;;;;;;;;5066865;28;20229;-82
2023/04/13 11:44:45;;;;;;;0.88;0.77;;;;;;;;;;5064483;28;20229;-80
2023/04/13 11:47:14;;;;;;;0.45;0.45;;;;;;;;;;5080324;28;20188;-81
2023/04/13 11:49:46;;;;;;;0.50;0.50;;;;;;;;;;5079433;28;20241;-80
2023/04/13 11:52:16;;;;;;;0.50;0.35;;;;;;;;;;5079561;28;20282;-80
2023/04/13 11:54:43;;;;;;;0.40;0.40;;;;;;;;;;5079887;28;20249;-80
2023/04/13 11:57:12;;;;;;;0.60;0.60;;;;;;;;;;5079211;28;20185;-80
2023/04/13 11:59:39;;;;;;;0.75;0.70;;;;;;;;;;5074846;28;20218;-80
2023/04/13 12:02:07;;;;;;;0.35;0.35;;;;;;;;;;5070813;28;20229;-82
2023/04/13 12:04:39;;;;;;;0.52;0.52;;;;;;;;;;5070703;28;20241;-82
2023/04/13 12:07:12;;;;;;;0.50;0.50;;;;;;;;;;5070573;28;20205;-82
2023/04/13 12:09:45;;;;;;;0.40;0.40;;;;;;;;;;5070311;28;20225;-81
2023/04/13 12:12:17;;;;;;;0.57;0.50;;;;;;;;;;5070490;28;20292;-81
2023/04/13 12:14:52;;;;;;;0.43;0.43;;;;;;;;;;5070689;28;20201;-82
2023/04/13 12:17:19;;;;;;;0.40;0.40;;;;;;;;;;5069913;28;20332;-81
2023/04/13 12:19:53;;;;;;;0.30;0.30;;;;;;;;;;5067763;28;20226;-81
2023/04/13 12:22:22;;;;;;;0.40;0.40;;;;;;;;;;5067077;28;20269;-81
2023/04/13 12:24:50;;;;;;;0.38;0.38;;;;;;;;;;5067587;28;20666;-81
2023/04/13 12:27:18;;;;;;;0.13;0.13;;;;;;;;;;5066985;28;20566;-82
2023/04/13 12:29:47;;;;;;;0.38;0.38;;;;;;;;;;5066477;28;20229;-81
2023/04/13 12:32:15;;;;;;;0.30;0.30;;;;;;;;;;5067363;28;20217;-81
2023/04/13 12:34:43;;;;;;;0.50;0.50;;;;;;;;;;5067020;28;20202;-81
2023/04/13 12:37:11;;;;;;;0.47;0.47;;;;;;;;;;5066017;28;20248;-80
2023/04/13 12:39:38;;;;;;;0.35;0.32;;;;;;;;;;5065510;28;20725;-80
2023/04/13 12:42:07;;;;;;;0.30;0.30;;;;;;;;;;5066737;28;20240;-81
2023/04/13 12:44:35;;;;;;;0.30;0.30;;;;;;;;;;5067096;28;20233;-80
2023/04/13 12:47:02;;;;;;;0.45;0.45;;;;;;;;;;5067696;28;20202;-81
2023/04/13 12:49:30;;;;;;;0.32;0.32;;;;;;;;;;5068332;28;20225;-81
2023/04/13 12:51:57;;;;;;;0.47;0.43;;;;;;;;;;5069312;28;20213;-81
2023/04/13 12:54:24;;;;;;;0.40;0.40;;;;;;;;;;5069231;28;20721;-80
2023/04/13 12:56:52;;;;;;;0.50;0.50;;;;;;;;;;5069445;28;20273;-81
2023/04/13 12:59:21;;;;;;;0.68;0.68;;;;;;;;;;5069714;28;20301;-81
2023/04/13 13:01:49;;;;;;;0.50;0.50;;;;;;;;;;5069666;28;20197;-80
2023/04/13 13:04:17;;;;;;;1.25;0.65;;;;;;;;;;5069401;28;20202;-80
2023/04/13 13:06:44;;;;;;;0.63;0.63;;;;;;;;;;5069488;28;20201;-80
2023/04/13 13:09:12;;;;;;;0.90;0.90;;;;;;;;;;5067958;28;20267;-81
2023/04/13 13:11:39;;;;;;;0.63;0.63;;;;;;;;;;5068419;28;20217;-81
2023/04/13 13:14:07;;;;;;;0.70;0.70;;;;;;;;;;5068075;28;20236;-80
2023/04/13 13:16:36;;;;;;;1.00;1.00;;;;;;;;;;5068792;28;20209;-81
2023/04/13 13:19:03;;;;;;;1.23;1.13;;;;;;;;;;5067274;28;20198;-81
2023/04/13 13:21:31;;;;;;;2.00;1.20;;;;;;;;;;5066662;28;20265;-81
2023/04/13 13:23:58;;;;;;;0.70;0.70;;;;;;;;;;5067244;28;20212;-81
2023/04/13 13:26:26;;;;;;;1.40;1.30;;;;;;;;;;5065934;28;20202;-80
2023/04/13 13:28:53;;;;;;;0.90;0.90;;;;;;;;;;5066673;28;20205;-80
2023/04/13 13:31:21;;;;;;;0.90;0.90;;;;;;;;;;5065839;28;20253;-83
2023/04/13 13:33:50;;;;;;;0.90;0.90;;;;;;;;;;5065852;28;20289;-81
2023/04/13 13:36:17;;;;;;;6.65;4.97;;;;;;;;;;5066590;28;20197;-80
2023/04/13 13:38:45;;;;;;;19.27;16.15;;;;;;;;;;5065331;28;20280;-80
2023/04/13 13:41:13;;;;;;;4.18;3.78;;;;;;;;;;5066724;28;20328;-79
2023/04/13 13:43:40;;;;;;;2.83;2.28;;;;;;;;;;5064852;28;20577;-80
2023/04/13 13:46:08;;;;;;;1.10;1.00;;;;;;;;;;5065226;28;20205;-79
2023/04/13 13:48:35;;;;;;;1.10;1.00;;;;;;;;;;5066032;28;20233;-80
2023/04/13 13:51:05;;;;;;;0.90;0.90;;;;;;;;;;5065063;28;20232;-80
2023/04/13 13:53:32;;;;;;;1.17;1.08;;;;;;;;;;5063674;28;20193;-79
2023/04/13 13:56:00;;;;;;;0.70;0.70;;;;;;;;;;5065409;28;20205;-80
2023/04/13 13:58:28;;;;;;;0.82;0.82;;;;;;;;;;5064254;28;20205;-79
2023/04/13 14:00:55;;;;;;;1.35;1.08;;;;;;;;;;5065221;28;20217;-80
2023/04/13 14:03:23;;;;;;;0.82;0.82;;;;;;;;;;5064866;28;20213;-80
2023/04/13 14:05:50;;;;;;;0.75;0.75;;;;;;;;;;5065102;28;20225;-79
2023/04/13 14:08:19;;;;;;;0.90;0.90;;;;;;;;;;5065815;28;20232;-81
2023/04/13 14:10:48;;;;;;;2.00;1.27;;;;;;;;;;5064019;28;20307;-81
2023/04/13 14:13:16;;;;;;;0.90;0.90;;;;;;;;;;5061926;28;20698;-81
2023/04/13 14:15:43;;;;;;;2.03;0.98;;;;;;;;;;5064124;28;20217;-83
2023/04/13 14:18:11;;;;;;;1.83;1.10;;;;;;;;;;5061182;28;20293;-81
2023/04/13 14:20:39;;;;;;;1.27;1.17;;;;;;;;;;5060641;28;20304;-81
2023/04/13 14:23:07;;;;;;;0.98;0.77;;;;;;;;;;5062043;28;20193;-81
2023/04/13 14:25:37;;;;;;;1.20;1.10;;;;;;;;;;5065651;28;20237;-81
2023/04/13 14:28:05;;;;;;;2.13;1.50;;;;;;;;;;5065238;28;20633;-80
2023/04/13 14:30:32;;;;;;;1.17;1.10;;;;;;;;;;5064810;28;20601;-81
2023/04/13 14:33:00;;;;;;;1.63;1.17;;;;;;;;;;5063452;28;20218;-81
2023/04/13 14:35:28;;;;;;;0.80;0.80;;;;;;;;;;5063632;28;20206;-82
2023/04/13 14:37:55;;;;;;;1.30;0.95;;;;;;;;;;5065084;28;20292;-82
2023/04/13 14:40:23;;;;;;;1.73;1.00;;;;;;;;;;5098231;22;20315;-84
2023/04/13 14:42:52;;;;;;;2.47;1.15;;;;;;;;;;5097648;28;20247;-85
2023/04/13 14:45:20;;;;;;;0.82;0.82;;;;;;;;;;5097360;28;20210;-85
2023/04/13 14:47:48;;;;;;;1.05;1.05;;;;;;;;;;5097107;28;20210;-85
2023/04/13 14:50:16;;;;;;;1.38;1.10;;;;;;;;;;5096319;28;20272;-86
2023/04/13 14:52:44;;;;;;;1.08;1.05;;;;;;;;;;5112428;22;20247;-81
2023/04/13 14:55:12;;;;;;;1.05;1.00;;;;;;;;;;5112260;28;20220;-80